sensor_id;sensor_type;location;lat;lon;timestamp;temperature;humidity
14739;DHT22;7461;52.440;13.540;2023-04-06T00:00:39;4.10;99.90
14739;DHT22;7461;52.440;13.540;2023-04-06T00:03:06;4.10;99.90
14739;DHT22;7461;52.440;13.540;2023-04-06T00:05:33;4.00;99.90
14739;DHT22;7461;52.440;13.540;2023-04-06T00:08:02;4.10;99.90
14739;DHT22;7461;52.440;13.540;2023-04-06T00:10:29;4.10;99.90
14739;DHT22;7461;52.440;13.540;2023-04-06T00:12:56;4.00;99.90
14739;DHT22;7461;52.440;13.540;2023-04-06T00:15:23;4.00;99.90
14739;DHT22;7461;52.440;13.540;2023-04-06T00:17:51;4.00;99.90
14739;DHT22;7461;52.440;13.540;2023-04-06T00:20:18;4.00;99.90
14739;DHT22;7461;52.440;13.540;2023-04-06T00:22:45;3.90;99.90
14739;DHT22;7461;52.440;13.540;2023-04-06T00:25:14;3.90;99.90
14739;DHT22;7461;52.440;13.540;2023-04-06T00:27:42;3.90;99.90
14739;DHT22;7461;52.440;13.540;2023-04-06T00:30:12;3.80;99.90
14739;DHT22;7461;52.440;13.540;2023-04-06T00:32:40;3.70;99.90
14739;DHT22;7461;52.440;13.540;2023-04-06T00:35:07;3.70;99.90
14739;DHT22;7461;52.440;13.540;2023-04-06T00:37:34;3.60;99.90
14739;DHT22;7461;52.440;13.540;2023-04-06T00:40:01;3.60;99.90
14739;DHT22;7461;52.440;13.540;2023-04-06T00:42:30;3.70;99.90
14739;DHT22;7461;52.440;13.540;2023-04-06T00:44:59;3.60;99.90
14739;DHT22;7461;52.440;13.540;2023-04-06T00:47:26;3.60;99.90
14739;DHT22;7461;52.440;13.540;2023-04-06T00:49:54;3.60;99.90
14739;DHT22;7461;52.440;13.540;2023-04-06T00:52:21;3.60;99.90
14739;DHT22;7461;52.440;13.540;2023-04-06T00:54:49;3.60;99.90
14739;DHT22;7461;52.440;13.540;2023-04-06T00:57:16;3.60;99.90
14739;DHT22;7461;52.440;13.540;2023-04-06T00:59:45;3.60;99.90
14739;DHT22;7461;52.440;13.540;2023-04-06T01:02:12;3.60;99.90
14739;DHT22;7461;52.440;13.540;2023-04-06T01:04:39;3.50;99.90
14739;DHT22;7461;52.440;13.540;2023-04-06T01:07:07;3.60;99.90
14739;DHT22;7461;52.440;13.540;2023-04-06T01:09:34;3.60;99.90
14739;DHT22;7461;52.440;13.540;2023-04-06T01:12:01;3.50;99.90
14739;DHT22;7461;52.440;13.540;2023-04-06T01:14:29;3.60;99.90
14739;DHT22;7461;52.440;13.540;2023-04-06T01:16:59;3.60;99.90
14739;DHT22;7461;52.440;13.540;2023-04-06T01:19:27;3.50;99.90
14739;DHT22;7461;52.440;13.540;2023-04-06T01:21:54;3.60;99.90
14739;DHT22;7461;52.440;13.540;2023-04-06T01:24:23;3.60;99.90
14739;DHT22;7461;52.440;13.540;2023-04-06T01:26:50;3.70;99.90
14739;DHT22;7461;52.440;13.540;2023-04-06T01:29:17;3.70;99.90
14739;DHT22;7461;52.440;13.540;2023-04-06T01:31:44;3.70;99.90
14739;DHT22;7461;52.440;13.540;2023-04-06T01:34:11;3.70;99.90
14739;DHT22;7461;52.440;13.540;2023-04-06T01:36:38;3.70;99.90
14739;DHT22;7461;52.440;13.540;2023-04-06T01:39:05;3.70;99.90
14739;DHT22;7461;52.440;13.540;2023-04-06T01:41:33;3.70;99.90
14739;DHT22;7461;52.440;13.540;2023-04-06T01:44:01;3.70;99.90
14739;DHT22;7461;52.440;13.540;2023-04-06T01:46:28;3.70;99.90
14739;DHT22;7461;52.440;13.540;2023-04-06T01:48:55;3.60;99.90
14739;DHT22;7461;52.440;13.540;2023-04-06T01:51:22;3.60;99.90
14739;DHT22;7461;52.440;13.540;2023-04-06T01:53:50;3.60;99.90
14739;DHT22;7461;52.440;13.540;2023-04-06T01:56:17;3.50;99.90
14739;DHT22;7461;52.440;13.540;2023-04-06T01:58:45;3.50;99.90
14739;DHT22;7461;52.440;13.540;2023-04-06T02:01:12;3.40;99.90
14739;DHT22;7461;52.440;13.540;2023-04-06T02:03:39;3.40;99.90
14739;DHT22;7461;52.440;13.540;2023-04-06T02:06:06;3.40;99.90
14739;DHT22;7461;52.440;13.540;2023-04-06T02:08:33;3.40;99.90
14739;DHT22;7461;52.440;13.540;2023-04-06T02:11:00;3.40;99.90
14739;DHT22;7461;52.440;13.540;2023-04-06T02:13:27;3.30;99.90
14739;DHT22;7461;52.440;13.540;2023-04-06T02:15:56;3.40;99.90
14739;DHT22;7461;52.440;13.540;2023-04-06T02:18:24;3.40;99.90
14739;DHT22;7461;52.440;13.540;2023-04-06T02:20:51;3.40;99.90
14739;DHT22;7461;52.440;13.540;2023-04-06T02:23:18;3.40;99.90
14739;DHT22;7461;52.440;13.540;2023-04-06T02:25:45;3.30;99.90
14739;DHT22;7461;52.440;13.540;2023-04-06T02:28:12;3.30;99.90
14739;DHT22;7461;52.440;13.540;2023-04-06T02:30:39;3.20;99.90
14739;DHT22;7461;52.440;13.540;2023-04-06T02:33:10;3.30;99.90
14739;DHT22;7461;52.440;13.540;2023-04-06T02:35:37;3.30;99.90
14739;DHT22;7461;52.440;13.540;2023-04-06T02:38:04;3.30;99.90
14739;DHT22;7461;52.440;13.540;2023-04-06T02:40:31;3.20;99.90
14739;DHT22;7461;52.440;13.540;2023-04-06T02:42:58;3.20;99.90
14739;DHT22;7461;52.440;13.540;2023-04-06T02:45:25;3.20;99.90
14739;DHT22;7461;52.440;13.540;2023-04-06T02:47:52;3.30;99.90
14739;DHT22;7461;52.440;13.540;2023-04-06T02:50:20;3.30;99.90
14739;DHT22;7461;52.440;13.540;2023-04-06T02:52:47;3.30;99.90
14739;DHT22;7461;52.440;13.540;2023-04-06T02:55:15;3.20;99.90
14739;DHT22;7461;52.440;13.540;2023-04-06T02:57:42;3.20;99.90
14739;DHT22;7461;52.440;13.540;2023-04-06T03:00:10;3.20;99.90
14739;DHT22;7461;52.440;13.540;2023-04-06T03:02:37;3.10;99.90
14739;DHT22;7461;52.440;13.540;2023-04-06T03:05:04;3.10;99.90
14739;DHT22;7461;52.440;13.540;2023-04-06T03:07:33;3.10;99.90
14739;DHT22;7461;52.440;13.540;2023-04-06T03:10:00;3.10;99.90
14739;DHT22;7461;52.440;13.540;2023-04-06T03:12:27;3.00;99.90
14739;DHT22;7461;52.440;13.540;2023-04-06T03:14:54;2.90;99.90
14739;DHT22;7461;52.440;13.540;2023-04-06T03:17:21;2.90;99.90
14739;DHT22;7461;52.440;13.540;2023-04-06T03:19:48;2.90;99.90
14739;DHT22;7461;52.440;13.540;2023-04-06T03:22:15;2.80;99.90
14739;DHT22;7461;52.440;13.540;2023-04-06T03:24:43;2.70;99.90
14739;DHT22;7461;52.440;13.540;2023-04-06T03:27:10;2.70;99.90
14739;DHT22;7461;52.440;13.540;2023-04-06T03:29:37;2.60;99.90
14739;DHT22;7461;52.440;13.540;2023-04-06T03:32:07;2.60;99.90
14739;DHT22;7461;52.440;13.540;2023-04-06T03:34:35;2.60;99.90
14739;DHT22;7461;52.440;13.540;2023-04-06T03:37:02;2.50;99.90
14739;DHT22;7461;52.440;13.540;2023-04-06T03:39:31;2.40;99.90
14739;DHT22;7461;52.440;13.540;2023-04-06T03:41:59;2.40;99.90
14739;DHT22;7461;52.440;13.540;2023-04-06T03:44:26;2.40;99.90
14739;DHT22;7461;52.440;13.540;2023-04-06T03:46:53;2.30;99.90
14739;DHT22;7461;52.440;13.540;2023-04-06T03:49:20;2.20;99.90
14739;DHT22;7461;52.440;13.540;2023-04-06T03:51:47;2.20;99.90
14739;DHT22;7461;52.440;13.540;2023-04-06T03:54:14;2.10;99.90
14739;DHT22;7461;52.440;13.540;2023-04-06T03:56:44;2.00;99.90
14739;DHT22;7461;52.440;13.540;2023-04-06T03:59:16;2.00;99.90
14739;DHT22;7461;52.440;13.540;2023-04-06T04:01:43;2.00;99.90
14739;DHT22;7461;52.440;13.540;2023-04-06T04:04:10;2.00;99.90
14739;DHT22;7461;52.440;13.540;2023-04-06T04:06:37;1.90;99.90
14739;DHT22;7461;52.440;13.540;2023-04-06T04:09:04;1.90;99.90
14739;DHT22;7461;52.440;13.540;2023-04-06T04:11:31;1.90;99.90
14739;DHT22;7461;52.440;13.540;2023-04-06T04:13:58;1.80;99.90
14739;DHT22;7461;52.440;13.540;2023-04-06T04:16:26;1.80;99.90
14739;DHT22;7461;52.440;13.540;2023-04-06T04:18:53;1.70;99.90
14739;DHT22;7461;52.440;13.540;2023-04-06T04:21:20;1.60;99.90
14739;DHT22;7461;52.440;13.540;2023-04-06T04:23:47;1.60;99.90
14739;DHT22;7461;52.440;13.540;2023-04-06T04:26:14;1.60;99.90
14739;DHT22;7461;52.440;13.540;2023-04-06T04:28:41;1.60;99.90
14739;DHT22;7461;52.440;13.540;2023-04-06T04:31:08;1.60;99.90
14739;DHT22;7461;52.440;13.540;2023-04-06T04:33:37;1.50;99.90
14739;DHT22;7461;52.440;13.540;2023-04-06T04:36:06;1.50;99.90
14739;DHT22;7461;52.440;13.540;2023-04-06T04:38:33;1.50;99.90
14739;DHT22;7461;52.440;13.540;2023-04-06T04:41:00;1.50;99.90
14739;DHT22;7461;52.440;13.540;2023-04-06T04:43:27;1.40;99.90
14739;DHT22;7461;52.440;13.540;2023-04-06T04:45:54;1.40;99.90
14739;DHT22;7461;52.440;13.540;2023-04-06T04:48:22;1.40;99.90
14739;DHT22;7461;52.440;13.540;2023-04-06T04:50:50;1.30;99.90
14739;DHT22;7461;52.440;13.540;2023-04-06T04:53:17;1.30;99.90
14739;DHT22;7461;52.440;13.540;2023-04-06T04:55:44;1.30;99.90
14739;DHT22;7461;52.440;13.540;2023-04-06T04:58:11;1.30;99.90
14739;DHT22;7461;52.440;13.540;2023-04-06T05:00:42;1.40;99.90
14739;DHT22;7461;52.440;13.540;2023-04-06T05:03:09;1.40;99.90
14739;DHT22;7461;52.440;13.540;2023-04-06T05:05:40;1.40;99.90
14739;DHT22;7461;52.440;13.540;2023-04-06T05:08:09;1.40;99.90
14739;DHT22;7461;52.440;13.540;2023-04-06T05:10:36;1.40;99.90
14739;DHT22;7461;52.440;13.540;2023-04-06T05:13:03;1.40;99.90
14739;DHT22;7461;52.440;13.540;2023-04-06T05:15:30;1.40;99.90
14739;DHT22;7461;52.440;13.540;2023-04-06T05:17:57;1.40;99.90
14739;DHT22;7461;52.440;13.540;2023-04-06T05:20:25;1.50;99.90
14739;DHT22;7461;52.440;13.540;2023-04-06T05:22:52;1.50;99.90
14739;DHT22;7461;52.440;13.540;2023-04-06T05:25:20;1.50;99.90
14739;DHT22;7461;52.440;13.540;2023-04-06T05:27:47;1.60;99.90
14739;DHT22;7461;52.440;13.540;2023-04-06T05:30:14;1.60;99.90
14739;DHT22;7461;52.440;13.540;2023-04-06T05:32:42;1.60;99.90
14739;DHT22;7461;52.440;13.540;2023-04-06T05:35:10;1.70;99.90
14739;DHT22;7461;52.440;13.540;2023-04-06T05:37:38;1.80;99.90
14739;DHT22;7461;52.440;13.540;2023-04-06T05:40:06;1.80;99.90
14739;DHT22;7461;52.440;13.540;2023-04-06T05:42:38;1.90;99.90
14739;DHT22;7461;52.440;13.540;2023-04-06T05:45:09;2.00;99.90
14739;DHT22;7461;52.440;13.540;2023-04-06T05:47:36;2.00;99.90
14739;DHT22;7461;52.440;13.540;2023-04-06T05:50:04;2.10;99.90
14739;DHT22;7461;52.440;13.540;2023-04-06T05:52:32;2.20;99.90
14739;DHT22;7461;52.440;13.540;2023-04-06T05:54:59;2.30;99.90
14739;DHT22;7461;52.440;13.540;2023-04-06T05:57:26;2.30;99.90
14739;DHT22;7461;52.440;13.540;2023-04-06T05:59:55;2.40;99.90
14739;DHT22;7461;52.440;13.540;2023-04-06T06:02:22;2.40;99.90
14739;DHT22;7461;52.440;13.540;2023-04-06T06:04:49;2.50;99.90
14739;DHT22;7461;52.440;13.540;2023-04-06T06:07:16;2.60;99.90
14739;DHT22;7461;52.440;13.540;2023-04-06T06:09:43;2.60;99.90
14739;DHT22;7461;52.440;13.540;2023-04-06T06:12:10;2.70;99.90
14739;DHT22;7461;52.440;13.540;2023-04-06T06:14:37;2.70;99.90
14739;DHT22;7461;52.440;13.540;2023-04-06T06:17:09;2.80;99.90
14739;DHT22;7461;52.440;13.540;2023-04-06T06:19:36;2.90;99.90
14739;DHT22;7461;52.440;13.540;2023-04-06T06:22:03;3.00;99.90
14739;DHT22;7461;52.440;13.540;2023-04-06T06:24:30;3.00;99.90
14739;DHT22;7461;52.440;13.540;2023-04-06T06:26:58;3.10;99.90
14739;DHT22;7461;52.440;13.540;2023-04-06T06:29:25;3.20;99.90
14739;DHT22;7461;52.440;13.540;2023-04-06T06:31:52;3.30;99.90
14739;DHT22;7461;52.440;13.540;2023-04-06T06:34:20;3.30;99.90
14739;DHT22;7461;52.440;13.540;2023-04-06T06:36:48;3.40;99.90
14739;DHT22;7461;52.440;13.540;2023-04-06T06:39:15;3.50;99.90
14739;DHT22;7461;52.440;13.540;2023-04-06T06:41:42;3.60;99.90
14739;DHT22;7461;52.440;13.540;2023-04-06T06:44:09;3.60;99.90
14739;DHT22;7461;52.440;13.540;2023-04-06T06:46:36;3.70;99.90
14739;DHT22;7461;52.440;13.540;2023-04-06T06:49:03;3.80;99.90
14739;DHT22;7461;52.440;13.540;2023-04-06T06:51:32;3.80;99.90
14739;DHT22;7461;52.440;13.540;2023-04-06T06:53:59;4.00;99.90
14739;DHT22;7461;52.440;13.540;2023-04-06T06:56:26;4.10;99.90
14739;DHT22;7461;52.440;13.540;2023-04-06T06:58:53;4.10;99.90
14739;DHT22;7461;52.440;13.540;2023-04-06T07:01:20;4.20;99.90
14739;DHT22;7461;52.440;13.540;2023-04-06T07:03:48;4.30;99.90
14739;DHT22;7461;52.440;13.540;2023-04-06T07:06:15;4.40;99.90
14739;DHT22;7461;52.440;13.540;2023-04-06T07:08:43;4.50;99.90
14739;DHT22;7461;52.440;13.540;2023-04-06T07:11:11;4.60;99.90
14739;DHT22;7461;52.440;13.540;2023-04-06T07:13:38;4.70;99.90
14739;DHT22;7461;52.440;13.540;2023-04-06T07:16:05;4.80;99.90
14739;DHT22;7461;52.440;13.540;2023-04-06T07:18:32;4.90;99.90
14739;DHT22;7461;52.440;13.540;2023-04-06T07:20:59;5.00;99.90
14739;DHT22;7461;52.440;13.540;2023-04-06T07:23:26;5.10;99.90
14739;DHT22;7461;52.440;13.540;2023-04-06T07:25:55;5.20;99.90
14739;DHT22;7461;52.440;13.540;2023-04-06T07:28:22;5.30;99.90
14739;DHT22;7461;52.440;13.540;2023-04-06T07:30:49;5.40;99.90
14739;DHT22;7461;52.440;13.540;2023-04-06T07:33:16;5.50;99.90
14739;DHT22;7461;52.440;13.540;2023-04-06T07:35:43;5.60;99.90
14739;DHT22;7461;52.440;13.540;2023-04-06T07:38:11;5.70;99.90
14739;DHT22;7461;52.440;13.540;2023-04-06T07:40:38;5.80;99.90
14739;DHT22;7461;52.440;13.540;2023-04-06T07:43:06;5.90;99.90
14739;DHT22;7461;52.440;13.540;2023-04-06T07:45:33;5.90;99.90
14739;DHT22;7461;52.440;13.540;2023-04-06T07:48:00;6.00;99.90
14739;DHT22;7461;52.440;13.540;2023-04-06T07:50:27;6.20;99.90
14739;DHT22;7461;52.440;13.540;2023-04-06T07:52:55;6.20;99.90
14739;DHT22;7461;52.440;13.540;2023-04-06T07:55:24;6.30;99.90
14739;DHT22;7461;52.440;13.540;2023-04-06T07:57:51;6.40;99.90
14739;DHT22;7461;52.440;13.540;2023-04-06T08:00:20;6.50;99.90
14739;DHT22;7461;52.440;13.540;2023-04-06T08:02:48;6.60;99.90
14739;DHT22;7461;52.440;13.540;2023-04-06T08:05:15;6.70;99.90
14739;DHT22;7461;52.440;13.540;2023-04-06T08:07:43;6.80;99.90
14739;DHT22;7461;52.440;13.540;2023-04-06T08:10:10;6.90;99.90
14739;DHT22;7461;52.440;13.540;2023-04-06T08:12:37;7.00;99.90
14739;DHT22;7461;52.440;13.540;2023-04-06T08:15:05;7.10;99.90
14739;DHT22;7461;52.440;13.540;2023-04-06T08:17:34;7.20;99.90
14739;DHT22;7461;52.440;13.540;2023-04-06T08:20:01;7.30;99.90
14739;DHT22;7461;52.440;13.540;2023-04-06T08:22:29;7.40;98.80
14739;DHT22;7461;52.440;13.540;2023-04-06T08:24:57;7.60;98.30
14739;DHT22;7461;52.440;13.540;2023-04-06T08:27:24;7.70;97.10
14739;DHT22;7461;52.440;13.540;2023-04-06T08:29:51;7.90;94.90
14739;DHT22;7461;52.440;13.540;2023-04-06T08:32:19;8.00;93.90
14739;DHT22;7461;52.440;13.540;2023-04-06T08:34:47;8.10;93.30
14739;DHT22;7461;52.440;13.540;2023-04-06T08:37:14;8.30;92.60
14739;DHT22;7461;52.440;13.540;2023-04-06T08:39:41;8.50;91.70
14739;DHT22;7461;52.440;13.540;2023-04-06T08:42:13;8.70;90.40
14739;DHT22;7461;52.440;13.540;2023-04-06T08:44:42;9.00;91.40
14739;DHT22;7461;52.440;13.540;2023-04-06T08:47:09;9.20;87.30
14739;DHT22;7461;52.440;13.540;2023-04-06T08:49:37;9.30;91.80
14739;DHT22;7461;52.440;13.540;2023-04-06T08:52:07;9.50;82.90
14739;DHT22;7461;52.440;13.540;2023-04-06T08:54:34;9.50;81.80
14739;DHT22;7461;52.440;13.540;2023-04-06T08:57:03;9.60;88.10
14739;DHT22;7461;52.440;13.540;2023-04-06T08:59:31;9.70;80.50
14739;DHT22;7461;52.440;13.540;2023-04-06T09:02:00;9.90;83.90
14739;DHT22;7461;52.440;13.540;2023-04-06T09:04:29;10.20;77.00
14739;DHT22;7461;52.440;13.540;2023-04-06T09:06:57;10.10;70.40
14739;DHT22;7461;52.440;13.540;2023-04-06T09:09:25;10.10;74.30
14739;DHT22;7461;52.440;13.540;2023-04-06T09:11:53;10.30;70.90
14739;DHT22;7461;52.440;13.540;2023-04-06T09:14:34;10.40;68.70
14739;DHT22;7461;52.440;13.540;2023-04-06T09:17:02;10.40;68.80
14739;DHT22;7461;52.440;13.540;2023-04-06T09:19:29;10.30;66.50
14739;DHT22;7461;52.440;13.540;2023-04-06T09:22:02;10.60;71.30
14739;DHT22;7461;52.440;13.540;2023-04-06T09:24:41;10.50;65.00
14739;DHT22;7461;52.440;13.540;2023-04-06T09:27:09;10.50;65.30
14739;DHT22;7461;52.440;13.540;2023-04-06T09:29:36;10.90;70.50
14739;DHT22;7461;52.440;13.540;2023-04-06T09:32:04;11.10;70.50
14739;DHT22;7461;52.440;13.540;2023-04-06T09:34:32;11.40;69.50
14739;DHT22;7461;52.440;13.540;2023-04-06T09:37:00;11.50;67.30
14739;DHT22;7461;52.440;13.540;2023-04-06T09:39:27;11.90;69.60
14739;DHT22;7461;52.440;13.540;2023-04-06T09:41:55;12.00;66.90
14739;DHT22;7461;52.440;13.540;2023-04-06T09:44:22;12.30;63.60
14739;DHT22;7461;52.440;13.540;2023-04-06T09:46:53;11.90;59.20
14739;DHT22;7461;52.440;13.540;2023-04-06T09:49:22;12.00;64.70
14739;DHT22;7461;52.440;13.540;2023-04-06T09:51:54;11.60;60.60
14739;DHT22;7461;52.440;13.540;2023-04-06T09:54:23;11.30;60.30
14739;DHT22;7461;52.440;13.540;2023-04-06T09:56:53;11.40;65.60
14739;DHT22;7461;52.440;13.540;2023-04-06T09:59:32;11.70;64.40
14739;DHT22;7461;52.440;13.540;2023-04-06T10:02:05;11.60;61.60
14739;DHT22;7461;52.440;13.540;2023-04-06T10:04:38;11.60;58.90
14739;DHT22;7461;52.440;13.540;2023-04-06T10:07:07;11.70;60.00
14739;DHT22;7461;52.440;13.540;2023-04-06T10:09:37;11.70;61.80
14739;DHT22;7461;52.440;13.540;2023-04-06T10:12:05;11.60;58.00
14739;DHT22;7461;52.440;13.540;2023-04-06T10:14:35;11.60;63.50
14739;DHT22;7461;52.440;13.540;2023-04-06T10:17:03;11.30;57.40
14739;DHT22;7461;52.440;13.540;2023-04-06T10:19:39;11.20;57.60
14739;DHT22;7461;52.440;13.540;2023-04-06T10:22:10;11.40;56.00
14739;DHT22;7461;52.440;13.540;2023-04-06T10:24:39;11.40;60.10
14739;DHT22;7461;52.440;13.540;2023-04-06T10:27:06;11.30;58.80
14739;DHT22;7461;52.440;13.540;2023-04-06T10:29:47;11.30;58.60
14739;DHT22;7461;52.440;13.540;2023-04-06T10:32:15;11.20;58.80
14739;DHT22;7461;52.440;13.540;2023-04-06T10:34:42;11.20;57.60
14739;DHT22;7461;52.440;13.540;2023-04-06T10:37:16;11.10;58.40
14739;DHT22;7461;52.440;13.540;2023-04-06T10:39:46;11.30;61.00
14739;DHT22;7461;52.440;13.540;2023-04-06T10:42:13;11.40;56.90
14739;DHT22;7461;52.440;13.540;2023-04-06T10:44:43;11.60;61.20
14739;DHT22;7461;52.440;13.540;2023-04-06T10:47:17;11.70;58.90
14739;DHT22;7461;52.440;13.540;2023-04-06T10:49:45;11.70;58.60
14739;DHT22;7461;52.440;13.540;2023-04-06T10:52:12;11.60;58.60
14739;DHT22;7461;52.440;13.540;2023-04-06T10:54:41;11.40;56.30
14739;DHT22;7461;52.440;13.540;2023-04-06T10:57:09;11.20;56.00
14739;DHT22;7461;52.440;13.540;2023-04-06T10:59:36;11.20;59.20
14739;DHT22;7461;52.440;13.540;2023-04-06T11:02:03;11.20;59.20
14739;DHT22;7461;52.440;13.540;2023-04-06T11:04:32;11.10;59.30
14739;DHT22;7461;52.440;13.540;2023-04-06T11:07:00;11.10;58.10
14739;DHT22;7461;52.440;13.540;2023-04-06T11:09:28;10.90;58.10
14739;DHT22;7461;52.440;13.540;2023-04-06T11:11:57;10.70;59.20
14739;DHT22;7461;52.440;13.540;2023-04-06T11:14:24;10.60;57.80
14739;DHT22;7461;52.440;13.540;2023-04-06T11:16:52;10.70;59.50
14739;DHT22;7461;52.440;13.540;2023-04-06T11:19:19;11.00;59.70
14739;DHT22;7461;52.440;13.540;2023-04-06T11:21:48;11.10;57.20
14739;DHT22;7461;52.440;13.540;2023-04-06T11:24:18;11.10;58.90
14739;DHT22;7461;52.440;13.540;2023-04-06T11:26:47;11.20;57.20
14739;DHT22;7461;52.440;13.540;2023-04-06T11:29:16;11.20;57.60
14739;DHT22;7461;52.440;13.540;2023-04-06T11:31:46;11.10;56.60
14739;DHT22;7461;52.440;13.540;2023-04-06T11:34:15;11.10;58.60
14739;DHT22;7461;52.440;13.540;2023-04-06T11:36:44;11.00;58.40
14739;DHT22;7461;52.440;13.540;2023-04-06T11:39:13;11.00;58.50
14739;DHT22;7461;52.440;13.540;2023-04-06T11:41:40;11.10;58.60
14739;DHT22;7461;52.440;13.540;2023-04-06T11:44:07;11.20;57.90
14739;DHT22;7461;52.440;13.540;2023-04-06T11:46:34;11.40;58.20
14739;DHT22;7461;52.440;13.540;2023-04-06T11:49:02;11.50;56.40
14739;DHT22;7461;52.440;13.540;2023-04-06T11:51:29;11.50;54.90
14739;DHT22;7461;52.440;13.540;2023-04-06T11:53:56;11.50;56.00
14739;DHT22;7461;52.440;13.540;2023-04-06T11:56:26;11.60;55.80
14739;DHT22;7461;52.440;13.540;2023-04-06T11:58:55;11.60;55.20
14739;DHT22;7461;52.440;13.540;2023-04-06T12:01:23;11.80;56.30
14739;DHT22;7461;52.440;13.540;2023-04-06T12:03:50;11.80;54.60
14739;DHT22;7461;52.440;13.540;2023-04-06T12:06:18;12.00;54.10
14739;DHT22;7461;52.440;13.540;2023-04-06T12:08:45;12.00;52.10
14739;DHT22;7461;52.440;13.540;2023-04-06T12:11:12;12.00;52.10
14739;DHT22;7461;52.440;13.540;2023-04-06T12:13:40;11.90;52.50
14739;DHT22;7461;52.440;13.540;2023-04-06T12:16:07;11.90;53.00
14739;DHT22;7461;52.440;13.540;2023-04-06T12:18:35;11.90;53.60
14739;DHT22;7461;52.440;13.540;2023-04-06T12:21:02;11.80;54.60
14739;DHT22;7461;52.440;13.540;2023-04-06T12:23:31;11.90;53.80
14739;DHT22;7461;52.440;13.540;2023-04-06T12:25:58;12.00;53.60
14739;DHT22;7461;52.440;13.540;2023-04-06T12:28:25;11.90;53.30
14739;DHT22;7461;52.440;13.540;2023-04-06T12:30:54;12.00;54.70
14739;DHT22;7461;52.440;13.540;2023-04-06T12:33:21;12.00;55.80
14739;DHT22;7461;52.440;13.540;2023-04-06T12:35:48;11.90;52.40
14739;DHT22;7461;52.440;13.540;2023-04-06T12:38:15;11.90;55.30
14739;DHT22;7461;52.440;13.540;2023-04-06T12:40:42;11.90;56.30
14739;DHT22;7461;52.440;13.540;2023-04-06T12:43:10;12.10;54.30
14739;DHT22;7461;52.440;13.540;2023-04-06T12:45:38;12.10;54.20
14739;DHT22;7461;52.440;13.540;2023-04-06T12:48:07;12.20;53.40
14739;DHT22;7461;52.440;13.540;2023-04-06T12:50:34;12.30;53.90
14739;DHT22;7461;52.440;13.540;2023-04-06T12:53:01;12.40;53.70
14739;DHT22;7461;52.440;13.540;2023-04-06T12:55:30;12.50;51.90
14739;DHT22;7461;52.440;13.540;2023-04-06T12:57:59;12.10;52.50
14739;DHT22;7461;52.440;13.540;2023-04-06T13:00:27;12.00;51.80
14739;DHT22;7461;52.440;13.540;2023-04-06T13:02:54;11.80;54.00
14739;DHT22;7461;52.440;13.540;2023-04-06T13:05:22;11.90;56.00
14739;DHT22;7461;52.440;13.540;2023-04-06T13:07:49;12.10;56.80
14739;DHT22;7461;52.440;13.540;2023-04-06T13:10:16;12.30;54.70
14739;DHT22;7461;52.440;13.540;2023-04-06T13:12:43;12.30;54.90
14739;DHT22;7461;52.440;13.540;2023-04-06T13:15:11;12.30;53.70
14739;DHT22;7461;52.440;13.540;2023-04-06T13:17:38;12.20;54.30
14739;DHT22;7461;52.440;13.540;2023-04-06T13:20:06;12.20;54.90
14739;DHT22;7461;52.440;13.540;2023-04-06T13:22:34;12.20;53.50
14739;DHT22;7461;52.440;13.540;2023-04-06T13:25:02;12.20;54.60
14739;DHT22;7461;52.440;13.540;2023-04-06T13:27:29;12.20;53.40
14739;DHT22;7461;52.440;13.540;2023-04-06T13:30:00;11.80;55.20
14739;DHT22;7461;52.440;13.540;2023-04-06T13:32:28;11.50;55.40
14739;DHT22;7461;52.440;13.540;2023-04-06T13:34:55;11.30;56.40
14739;DHT22;7461;52.440;13.540;2023-04-06T13:37:22;11.40;56.90
14739;DHT22;7461;52.440;13.540;2023-04-06T13:39:51;11.30;56.90
14739;DHT22;7461;52.440;13.540;2023-04-06T13:42:18;11.10;55.50
14739;DHT22;7461;52.440;13.540;2023-04-06T13:44:45;10.80;56.20
14739;DHT22;7461;52.440;13.540;2023-04-06T13:47:13;10.70;56.50
14739;DHT22;7461;52.440;13.540;2023-04-06T13:49:41;10.60;56.40
14739;DHT22;7461;52.440;13.540;2023-04-06T13:52:08;10.60;57.50
14739;DHT22;7461;52.440;13.540;2023-04-06T13:54:36;10.70;57.20
14739;DHT22;7461;52.440;13.540;2023-04-06T13:57:04;10.80;56.70
14739;DHT22;7461;52.440;13.540;2023-04-06T13:59:33;11.00;56.20
14739;DHT22;7461;52.440;13.540;2023-04-06T14:02:00;11.10;57.00
14739;DHT22;7461;52.440;13.540;2023-04-06T14:04:27;11.10;54.30
14739;DHT22;7461;52.440;13.540;2023-04-06T14:06:55;11.00;54.00
14739;DHT22;7461;52.440;13.540;2023-04-06T14:09:22;11.00;57.20
14739;DHT22;7461;52.440;13.540;2023-04-06T14:11:49;11.30;56.10
14739;DHT22;7461;52.440;13.540;2023-04-06T14:14:17;11.50;54.40
14739;DHT22;7461;52.440;13.540;2023-04-06T14:16:44;11.70;55.40
14739;DHT22;7461;52.440;13.540;2023-04-06T14:19:12;11.70;53.70
14739;DHT22;7461;52.440;13.540;2023-04-06T14:21:39;11.70;55.00
14739;DHT22;7461;52.440;13.540;2023-04-06T14:24:07;11.60;53.20
14739;DHT22;7461;52.440;13.540;2023-04-06T14:26:35;11.40;54.50
14739;DHT22;7461;52.440;13.540;2023-04-06T14:29:02;11.20;53.70
14739;DHT22;7461;52.440;13.540;2023-04-06T14:31:31;11.10;55.50
14739;DHT22;7461;52.440;13.540;2023-04-06T14:34:00;11.00;57.60
14739;DHT22;7461;52.440;13.540;2023-04-06T14:36:27;10.90;55.80
14739;DHT22;7461;52.440;13.540;2023-04-06T14:38:56;11.00;55.20
14739;DHT22;7461;52.440;13.540;2023-04-06T14:41:24;11.00;54.30
14739;DHT22;7461;52.440;13.540;2023-04-06T14:43:51;11.00;57.40
14739;DHT22;7461;52.440;13.540;2023-04-06T14:46:18;11.20;58.50
14739;DHT22;7461;52.440;13.540;2023-04-06T14:48:47;11.10;55.80
14739;DHT22;7461;52.440;13.540;2023-04-06T14:51:14;11.00;53.90
14739;DHT22;7461;52.440;13.540;2023-04-06T14:53:42;11.10;55.30
14739;DHT22;7461;52.440;13.540;2023-04-06T14:56:09;11.10;55.00
14739;DHT22;7461;52.440;13.540;2023-04-06T14:58:36;11.00;53.90
14739;DHT22;7461;52.440;13.540;2023-04-06T15:01:03;10.90;55.30
14739;DHT22;7461;52.440;13.540;2023-04-06T15:03:31;10.90;55.00
14739;DHT22;7461;52.440;13.540;2023-04-06T15:05:59;11.00;55.10
14739;DHT22;7461;52.440;13.540;2023-04-06T15:08:26;11.00;55.90
14739;DHT22;7461;52.440;13.540;2023-04-06T15:10:53;11.00;53.60
14739;DHT22;7461;52.440;13.540;2023-04-06T15:13:21;11.00;54.60
14739;DHT22;7461;52.440;13.540;2023-04-06T15:15:50;11.10;55.60
14739;DHT22;7461;52.440;13.540;2023-04-06T15:18:18;11.00;54.60
14739;DHT22;7461;52.440;13.540;2023-04-06T15:20:45;11.10;56.30
14739;DHT22;7461;52.440;13.540;2023-04-06T15:23:14;11.00;55.50
14739;DHT22;7461;52.440;13.540;2023-04-06T15:25:41;11.20;55.50
14739;DHT22;7461;52.440;13.540;2023-04-06T15:28:08;11.10;55.00
14739;DHT22;7461;52.440;13.540;2023-04-06T15:30:35;11.00;54.30
14739;DHT22;7461;52.440;13.540;2023-04-06T15:33:04;11.00;56.00
14739;DHT22;7461;52.440;13.540;2023-04-06T15:35:33;11.00;56.40
14739;DHT22;7461;52.440;13.540;2023-04-06T15:38:05;11.00;55.10
14739;DHT22;7461;52.440;13.540;2023-04-06T15:40:33;10.90;54.60
14739;DHT22;7461;52.440;13.540;2023-04-06T15:43:01;10.90;56.80